createdAt,value
2022-11-29T00:02:20.241Z,2.36
2022-11-29T00:07:23.351Z,2.32
2022-11-29T00:12:26.312Z,2.26
2022-11-29T00:17:29.217Z,2.21
2022-11-29T00:22:32.147Z,2.17
2022-11-29T00:27:35.166Z,2.14
2022-11-29T00:32:38.162Z,2.06
2022-11-29T00:37:41.063Z,2.03
2022-11-29T00:42:44.034Z,2.00
2022-11-29T00:47:46.972Z,1.99
2022-11-29T00:52:50.084Z,1.97
2022-11-29T00:57:52.998Z,1.88
2022-11-29T01:02:56.139Z,1.80
2022-11-29T01:07:59.174Z,1.77
2022-11-29T01:13:02.241Z,1.76
2022-11-29T01:18:05.464Z,1.73
2022-11-29T01:23:08.449Z,1.69
2022-11-29T01:28:11.372Z,1.66
2022-11-29T01:33:14.320Z,1.59
2022-11-29T01:38:17.809Z,1.53
2022-11-29T01:43:21.211Z,1.50
2022-11-29T01:48:32.825Z,1.48
2022-11-29T01:53:35.825Z,1.45
2022-11-29T01:58:39.231Z,1.44
2022-11-29T02:03:42.564Z,1.41
2022-11-29T02:08:45.489Z,1.38
2022-11-29T02:14:25.970Z,1.36
2022-11-29T02:19:59.236Z,1.33
2022-11-29T02:25:29.492Z,1.34
2022-11-29T02:31:03.345Z,1.34
2022-11-29T02:36:26.582Z,1.35
2022-11-29T02:42:33.337Z,1.34
2022-11-29T02:48:26.948Z,1.30
2022-11-29T02:53:45.758Z,1.29
2022-11-29T02:59:36.514Z,1.28
2022-11-29T03:05:07.142Z,1.27
2022-11-29T03:10:53.401Z,1.27
2022-11-29T03:16:07.851Z,1.25
2022-11-29T03:21:19.882Z,1.25
2022-11-29T03:27:00.937Z,1.25
2022-11-29T03:32:16.222Z,1.24
2022-11-29T03:37:30.793Z,1.23
2022-11-29T03:43:01.931Z,1.23
2022-11-29T03:48:07.930Z,1.24
2022-11-29T03:53:39.292Z,1.22
2022-11-29T03:59:06.979Z,1.20
2022-11-29T04:05:06.596Z,1.20
2022-11-29T04:11:04.841Z,1.19
2022-11-29T04:17:10.549Z,1.21
2022-11-29T04:22:19.177Z,1.22
2022-11-29T04:27:41.720Z,1.21
2022-11-29T04:33:21.615Z,1.22
2022-11-29T04:39:02.874Z,1.21
2022-11-29T04:44:25.336Z,1.20
2022-11-29T04:49:39.586Z,1.19
2022-11-29T04:55:10.802Z,1.20
2022-11-29T05:00:20.156Z,1.21
2022-11-29T05:05:46.976Z,1.22
2022-11-29T05:11:26.712Z,1.22
2022-11-29T05:16:54.212Z,1.23
2022-11-29T05:22:48.296Z,1.24
2022-11-29T05:28:09.858Z,1.25
2022-11-29T05:33:36.424Z,1.25
2022-11-29T05:39:00.098Z,1.28
2022-11-29T05:44:22.565Z,1.30
2022-11-29T05:50:04.744Z,1.32
2022-11-29T05:55:38.050Z,1.34
2022-11-29T06:00:51.660Z,1.34
2022-11-29T06:06:08.494Z,1.35
2022-11-29T06:11:30.770Z,1.34
2022-11-29T06:17:34.350Z,1.34
2022-11-29T06:22:47.861Z,1.35
2022-11-29T06:28:23.089Z,1.34
2022-11-29T06:33:58.779Z,1.35
2022-11-29T06:39:02.247Z,1.40
2022-11-29T06:44:06.185Z,1.46
2022-11-29T06:49:18.828Z,1.50
2022-11-29T06:55:03.511Z,1.53
2022-11-29T07:00:18.312Z,1.58
2022-11-29T07:05:36.122Z,1.60
2022-11-29T07:10:41.994Z,1.59
2022-11-29T07:16:00.076Z,1.61
2022-11-29T07:21:03.080Z,1.62
2022-11-29T07:26:33.145Z,1.64
2022-11-29T07:31:54.024Z,1.65
2022-11-29T07:37:34.726Z,1.67
2022-11-29T07:42:46.872Z,1.64
2022-11-29T07:47:50.354Z,1.62
2022-11-29T07:52:55.503Z,1.65
2022-11-29T07:57:58.468Z,1.68
2022-11-29T08:03:01.531Z,1.70
2022-11-29T08:08:06.330Z,1.75
2022-11-29T08:13:09.550Z,1.77
2022-11-29T08:18:13.925Z,1.77
2022-11-29T08:23:16.830Z,1.79
2022-11-29T08:28:19.722Z,1.88
2022-11-29T08:33:22.645Z,1.97
2022-11-29T08:38:25.584Z,1.96
2022-11-29T08:43:30.584Z,1.96
2022-11-29T08:48:33.980Z,1.90
2022-11-29T08:53:43.275Z,1.86
2022-11-29T08:58:46.467Z,1.83
2022-11-29T09:04:07.167Z,1.82
2022-11-29T09:09:10.169Z,1.79
2022-11-29T09:14:17.178Z,1.74
2022-11-29T09:19:20.118Z,1.70
2022-11-29T09:24:23.041Z,1.68
2022-11-29T09:29:26.086Z,1.73
2022-11-29T09:34:29.050Z,1.80
2022-11-29T09:39:32.119Z,1.75
2022-11-29T09:44:54.107Z,1.71
2022-11-29T09:50:21.379Z,1.74
2022-11-29T09:55:43.132Z,1.79
2022-11-29T10:00:52.206Z,1.79
2022-11-29T10:06:08.441Z,1.80
2022-11-29T10:11:33.766Z,1.79
2022-11-29T10:16:44.535Z,1.72
2022-11-29T10:22:00.861Z,1.71
2022-11-29T10:27:18.565Z,1.69
2022-11-29T10:32:25.518Z,1.76
2022-11-29T10:37:32.796Z,1.83
2022-11-29T10:42:53.335Z,1.88
2022-11-29T10:48:07.883Z,1.89
2022-11-29T10:53:32.677Z,1.96
2022-11-29T10:58:36.405Z,1.94
2022-11-29T11:03:54.235Z,1.95
2022-11-29T11:09:26.785Z,1.94
2022-11-29T11:14:38.851Z,1.87
2022-11-29T11:19:42.470Z,1.83
2022-11-29T11:24:45.642Z,1.85
2022-11-29T11:29:52.926Z,1.86
2022-11-29T11:35:00.968Z,1.85
2022-11-29T11:40:29.449Z,1.80
2022-11-29T11:45:36.770Z,1.85
2022-11-29T11:50:49.887Z,1.79
2022-11-29T11:56:07.029Z,1.73
2022-11-29T12:01:12.678Z,1.74
2022-11-29T12:06:43.919Z,1.84
2022-11-29T12:12:07.053Z,1.92
2022-11-29T12:17:37.352Z,1.92
2022-11-29T12:23:11.577Z,1.84
2022-11-29T12:28:20.785Z,1.83
2022-11-29T12:34:12.007Z,1.85
2022-11-29T12:40:04.050Z,1.94
2022-11-29T12:45:38.076Z,1.95
2022-11-29T12:50:53.096Z,1.96
2022-11-29T12:56:21.498Z,1.88
2022-11-29T13:01:36.354Z,1.91
2022-11-29T13:07:22.604Z,1.89
2022-11-29T13:13:27.507Z,1.85
2022-11-29T13:18:39.414Z,1.83
2022-11-29T13:24:08.228Z,1.83
2022-11-29T13:29:17.955Z,1.85
2022-11-29T13:34:41.720Z,1.85
2022-11-29T13:40:19.232Z,1.84
2022-11-29T13:45:26.543Z,1.82
2022-11-29T13:50:42.603Z,1.80
2022-11-29T13:56:00.829Z,1.77
2022-11-29T14:01:09.951Z,1.72
2022-11-29T14:06:31.541Z,1.64
2022-11-29T14:11:48.998Z,1.53
2022-11-29T14:17:01.918Z,1.46
2022-11-29T14:22:19.138Z,1.40
2022-11-29T14:27:22.001Z,1.31
2022-11-29T14:33:03.329Z,1.24
2022-11-29T14:38:36.284Z,1.27
2022-11-29T14:43:43.297Z,1.29
2022-11-29T14:48:55.416Z,1.30
2022-11-29T14:54:24.974Z,1.24
2022-11-29T14:59:48.803Z,1.20
2022-11-29T15:04:57.108Z,1.16
2022-11-29T15:10:05.450Z,1.18
2022-11-29T15:15:46.510Z,1.24
2022-11-29T15:21:13.775Z,1.26
2022-11-29T15:26:22.394Z,1.28
2022-11-29T15:31:26.671Z,1.27
2022-11-29T15:36:30.669Z,1.27
2022-11-29T15:41:35.722Z,1.25
2022-11-29T15:46:39.242Z,1.20
2022-11-29T15:51:42.815Z,1.16
2022-11-29T15:57:06.274Z,1.17
2022-11-29T16:02:25.227Z,1.16
2022-11-29T16:07:34.425Z,1.20
2022-11-29T16:12:57.822Z,1.19
2022-11-29T16:18:25.660Z,1.17
2022-11-29T16:23:38.918Z,1.15
2022-11-29T16:28:45.932Z,1.10
2022-11-29T16:33:52.499Z,1.06
2022-11-29T16:39:08.213Z,1.11
2022-11-29T16:44:40.460Z,1.17
2022-11-29T16:49:45.040Z,1.13
2022-11-29T16:54:49.433Z,1.13
2022-11-29T16:59:52.545Z,1.16
2022-11-29T17:04:59.021Z,1.20
2022-11-29T17:10:04.408Z,1.20
2022-11-29T17:15:08.413Z,1.20
2022-11-29T17:20:13.235Z,1.24
2022-11-29T17:25:16.784Z,1.28
2022-11-29T17:30:22.598Z,1.35
2022-11-29T17:35:25.586Z,1.43
2022-11-29T17:40:28.643Z,1.47
2022-11-29T17:45:31.975Z,1.54
2022-11-29T17:50:38.720Z,1.53
2022-11-29T17:55:42.037Z,1.51
2022-11-29T18:00:45.808Z,1.53
2022-11-29T18:05:48.862Z,1.58
2022-11-29T18:11:05.766Z,1.65
2022-11-29T18:16:20.060Z,1.62
2022-11-29T18:21:24.861Z,1.63
2022-11-29T18:26:31.215Z,1.64
2022-11-29T18:31:38.208Z,1.62
2022-11-29T18:36:48.445Z,1.64
2022-11-29T18:41:52.202Z,1.57
2022-11-29T18:46:57.200Z,1.55
2022-11-29T18:52:00.097Z,1.56
2022-11-29T18:57:03.228Z,1.54
2022-11-29T19:02:06.261Z,1.59
2022-11-29T19:07:09.285Z,1.66
2022-11-29T19:12:12.274Z,1.70
2022-11-29T19:17:15.287Z,1.73
2022-11-29T19:22:18.366Z,1.72
2022-11-29T19:27:22.504Z,1.78
2022-11-29T19:32:25.515Z,1.82
2022-11-29T19:37:28.506Z,1.80
2022-11-29T19:42:31.624Z,1.79
2022-11-29T19:47:35.087Z,1.77
2022-11-29T19:52:38.638Z,1.81
2022-11-29T19:57:41.720Z,1.88
2022-11-29T20:02:47.246Z,1.91
2022-11-29T20:07:50.377Z,1.94
2022-11-29T20:12:54.552Z,1.90
2022-11-29T20:17:57.382Z,1.83
2022-11-29T20:23:00.413Z,1.79
2022-11-29T20:28:04.463Z,1.77
2022-11-29T20:33:07.599Z,1.77
2022-11-29T20:38:55.913Z,1.74
2022-11-29T20:44:02.643Z,1.67
2022-11-29T20:49:06.759Z,1.61
2022-11-29T20:54:12.043Z,1.55
2022-11-29T20:59:14.946Z,1.47
2022-11-29T21:04:22.859Z,1.40
2022-11-29T21:09:28.457Z,1.39
2022-11-29T21:14:31.983Z,1.38
2022-11-29T21:19:35.801Z,1.35
2022-11-29T21:24:47.040Z,1.34
2022-11-29T21:29:51.594Z,1.35
2022-11-29T21:34:54.443Z,1.39
2022-11-29T21:39:57.718Z,1.42
2022-11-29T21:45:00.681Z,1.45
2022-11-29T21:50:04.066Z,1.49
2022-11-29T21:55:07.461Z,1.47
2022-11-29T22:00:11.030Z,1.46
2022-11-29T22:05:14.006Z,1.41
2022-11-29T22:10:17.072Z,1.39
2022-11-29T22:15:24.447Z,1.38
2022-11-29T22:20:28.143Z,1.35
2022-11-29T22:25:31.088Z,1.31
2022-11-29T22:30:35.956Z,1.26
2022-11-29T22:35:44.153Z,1.22
2022-11-29T22:40:47.173Z,1.21
2022-11-29T22:45:50.065Z,1.23
2022-11-29T22:50:52.966Z,1.31
2022-11-29T22:56:01.231Z,1.37
2022-11-29T23:01:15.858Z,1.40
2022-11-29T23:06:23.608Z,1.40
2022-11-29T23:11:29.775Z,1.40
2022-11-29T23:16:33.591Z,1.36
2022-11-29T23:21:40.098Z,1.35
2022-11-29T23:26:47.589Z,1.30
2022-11-29T23:31:50.612Z,1.28
2022-11-29T23:36:53.694Z,1.21
2022-11-29T23:41:56.669Z,1.18
2022-11-29T23:46:59.629Z,1.17
2022-11-29T23:52:02.584Z,1.15
2022-11-29T23:57:06.016Z,1.17
